Magnolia, Massachusetts
Current Conditions -  °F | °C
As of 1:53 AM on Sunday 23 Nov 2014 (Local Time) from KBVY Reporting Station
Scattered Clouds Scattered Clouds  
Wind Chill: 35°   Ceiling: Unl
Heat Index: 42°   Visibility: 10mi
Dew Point: 22°   Wind: 15mph
Humidity: 45%   Direction: 240°WSW
Pressure: 30.05"   Gusts: NA
Location:  42.6166°N, 70.7157°W
Report Text: KBVY 230653Z AUTO 24013KT 10SM SCT110 06/M06 A3005 RMK AO2 SLP173 T00561056
Loading
Personal Weather Stations






























Interactive Weather Map New forecast layout! Learn more

10-Day Weather Forecast

Advertisements
Track Severe Weather on mobile